createdAt,value
2023-03-31T00:01:53.001Z,98085.16
2023-03-31T00:04:24.015Z,98083.28
2023-03-31T00:06:54.274Z,98087.06
2023-03-31T00:09:24.720Z,98079.22
2023-03-31T00:11:52.651Z,98086.53
2023-03-31T00:14:20.780Z,98110.50
2023-03-31T00:16:47.496Z,98123.75
2023-03-31T00:19:21.349Z,98113.50
2023-03-31T00:21:49.165Z,98099.50
2023-03-31T00:24:16.492Z,98077.09
2023-03-31T00:26:43.846Z,98046.63
2023-03-31T00:29:12.843Z,98046.06
2023-03-31T00:31:39.480Z,98038.53
2023-03-31T00:34:07.086Z,98039.59
2023-03-31T00:36:36.901Z,98031.50
2023-03-31T00:39:09.729Z,98017.72
2023-03-31T00:41:39.291Z,98012.06
2023-03-31T00:44:13.067Z,98007.22
2023-03-31T00:46:52.528Z,98009.94
2023-03-31T00:49:47.180Z,98011.81
2023-03-31T00:52:30.650Z,98009.97
2023-03-31T00:55:02.067Z,98009.66
2023-03-31T00:57:33.829Z,98007.50
2023-03-31T01:00:18.191Z,98007.75
2023-03-31T01:02:53.286Z,97995.34
2023-03-31T01:05:25.111Z,97980.78
2023-03-31T01:07:52.960Z,97985.09
2023-03-31T01:10:19.621Z,97982.41
2023-03-31T01:12:51.046Z,97985.63
2023-03-31T01:15:18.039Z,97975.66
2023-03-31T01:17:45.440Z,97976.22
2023-03-31T01:20:39.950Z,97987.53
2023-03-31T01:23:29.740Z,97981.88
2023-03-31T01:26:21.146Z,97987.00
2023-03-31T01:29:34.133Z,97972.16
2023-03-31T01:32:06.545Z,97947.63
2023-03-31T01:34:35.777Z,97963.00
2023-03-31T01:37:11.528Z,97954.91
2023-03-31T01:39:53.065Z,97952.47
2023-03-31T01:42:22.576Z,97941.44
2023-03-31T01:45:12.499Z,97919.88
2023-03-31T01:47:46.945Z,97926.06
2023-03-31T01:50:19.737Z,97920.41
2023-03-31T01:52:58.169Z,97900.69
2023-03-31T01:55:40.546Z,97892.91
2023-03-31T01:58:11.229Z,97874.03
2023-03-31T02:00:51.874Z,97847.34
2023-03-31T02:03:24.349Z,97831.97
2023-03-31T02:05:55.646Z,97807.16
2023-03-31T02:08:32.159Z,97794.25
2023-03-31T02:10:59.306Z,97798.22
2023-03-31T02:13:28.250Z,97816.31
2023-03-31T02:16:01.535Z,97814.19
2023-03-31T02:18:30.732Z,97800.22
2023-03-31T02:20:59.855Z,97786.72
2023-03-31T02:23:31.742Z,97777.03
2023-03-31T02:26:06.434Z,97760.63
2023-03-31T02:28:33.499Z,97749.03
2023-03-31T02:31:09.388Z,97730.97
2023-03-31T02:33:36.094Z,97722.66
2023-03-31T02:36:03.070Z,97709.22
2023-03-31T02:38:35.092Z,97708.38
2023-03-31T02:41:01.654Z,97696.00
2023-03-31T02:43:28.178Z,97685.78
2023-03-31T02:45:54.694Z,97686.59
2023-03-31T02:48:26.336Z,97686.59
2023-03-31T02:51:08.838Z,97669.91
2023-03-31T02:53:38.265Z,97671.53
2023-03-31T02:56:32.630Z,97658.31
2023-03-31T02:59:18.012Z,97649.19
2023-03-31T03:02:08.486Z,97639.22
2023-03-31T03:05:02.243Z,97636.28
2023-03-31T03:07:39.084Z,97630.06
2023-03-31T03:10:44.713Z,97630.34
2023-03-31T03:13:28.619Z,97618.25
2023-03-31T03:16:04.191Z,97590.28
2023-03-31T03:18:31.067Z,97588.91
2023-03-31T03:20:57.647Z,97555.56
2023-03-31T03:23:24.166Z,97556.09
2023-03-31T03:25:51.159Z,97542.34
2023-03-31T03:28:17.746Z,97525.41
2023-03-31T03:30:44.321Z,97514.94
2023-03-31T03:33:11.108Z,97503.66
2023-03-31T03:35:37.765Z,97502.00
2023-03-31T03:38:04.296Z,97514.69
2023-03-31T03:40:30.806Z,97513.84
2023-03-31T03:42:57.327Z,97512.78
2023-03-31T03:45:23.810Z,97529.75
2023-03-31T03:47:50.316Z,97506.03
2023-03-31T03:50:17.117Z,97493.97
2023-03-31T03:52:44.039Z,97474.59
2023-03-31T03:55:12.175Z,97468.13
2023-03-31T03:57:38.731Z,97478.63
2023-03-31T04:00:12.303Z,97461.94
2023-03-31T04:02:40.081Z,97455.47
2023-03-31T04:05:07.098Z,97434.75
2023-03-31T04:07:33.675Z,97422.88
2023-03-31T04:10:00.304Z,97420.72
2023-03-31T04:12:26.811Z,97420.72
2023-03-31T04:14:53.272Z,97429.91
2023-03-31T04:17:32.432Z,97420.72
2023-03-31T04:20:07.895Z,97399.97
2023-03-31T04:22:40.803Z,97420.66
2023-03-31T04:25:16.654Z,97404.00
2023-03-31T04:27:54.729Z,97410.75
2023-03-31T04:30:23.884Z,97398.09
2023-03-31T04:32:55.929Z,97404.28
2023-03-31T04:35:24.357Z,97392.44
2023-03-31T04:37:58.620Z,97401.75
2023-03-31T04:40:25.580Z,97424.84
2023-03-31T04:42:52.337Z,97422.94
2023-03-31T04:45:18.853Z,97420.19
2023-03-31T04:47:45.461Z,97414.91
2023-03-31T04:50:16.212Z,97419.72
2023-03-31T04:52:43.780Z,97429.91
2023-03-31T04:55:10.659Z,97408.44
2023-03-31T04:57:37.360Z,97417.38
2023-03-31T05:00:08.005Z,97403.84
2023-03-31T05:02:35.028Z,97411.16
2023-03-31T05:05:01.608Z,97412.41
2023-03-31T05:07:28.155Z,97400.69
2023-03-31T05:09:54.611Z,97390.59
2023-03-31T05:12:21.609Z,97381.47
2023-03-31T05:14:48.278Z,97384.19
2023-03-31T05:17:14.968Z,97371.16
2023-03-31T05:19:41.611Z,97376.94
2023-03-31T05:22:08.119Z,97370.41
2023-03-31T05:24:34.826Z,97365.06
2023-03-31T05:27:01.280Z,97365.75
2023-03-31T05:29:27.999Z,97358.69
2023-03-31T05:31:54.531Z,97363.06
2023-03-31T05:34:21.251Z,97363.28
2023-03-31T05:36:53.485Z,97352.66
2023-03-31T05:39:20.062Z,97350.47
2023-03-31T05:41:46.601Z,97350.97
2023-03-31T05:44:13.088Z,97365.16
2023-03-31T05:46:39.810Z,97366.59
2023-03-31T05:49:07.073Z,97368.16
2023-03-31T05:51:34.053Z,97348.88
2023-03-31T05:54:00.836Z,97366.41
2023-03-31T05:56:27.609Z,97376.97
2023-03-31T05:58:54.121Z,97382.75
2023-03-31T06:01:22.931Z,97404.66
2023-03-31T06:03:49.988Z,97409.69
2023-03-31T06:06:16.714Z,97422.03
2023-03-31T06:08:45.602Z,97434.44
2023-03-31T06:11:14.988Z,97448.91
2023-03-31T06:13:42.066Z,97453.72
2023-03-31T06:16:11.172Z,97502.00
2023-03-31T06:18:37.851Z,97546.00
2023-03-31T06:21:05.666Z,97524.94
2023-03-31T06:23:32.479Z,97505.19
2023-03-31T06:26:06.326Z,97529.66
2023-03-31T06:28:34.081Z,97516.94
2023-03-31T06:31:12.735Z,97472.56
2023-03-31T06:33:41.236Z,97477.31
2023-03-31T06:36:08.710Z,97506.50
2023-03-31T06:38:36.432Z,97482.88
2023-03-31T06:41:03.064Z,97503.44
2023-03-31T06:43:29.739Z,97520.22
2023-03-31T06:45:56.810Z,97497.09
2023-03-31T06:48:25.159Z,97511.09
2023-03-31T06:50:53.642Z,97519.16
2023-03-31T06:53:20.456Z,97505.94
2023-03-31T06:55:46.919Z,97508.72
2023-03-31T06:58:13.659Z,97512.53
2023-03-31T07:00:40.942Z,97506.38
2023-03-31T07:03:09.100Z,97517.63
2023-03-31T07:05:35.821Z,97504.94
2023-03-31T07:08:02.597Z,97513.88
2023-03-31T07:10:31.478Z,97522.34
2023-03-31T07:12:58.259Z,97543.59
2023-03-31T07:15:25.944Z,97525.31
2023-03-31T07:18:01.906Z,97519.00
2023-03-31T07:20:30.326Z,97507.72
2023-03-31T07:22:57.257Z,97520.59
2023-03-31T07:25:23.878Z,97554.06
2023-03-31T07:27:50.644Z,97556.81
2023-03-31T07:30:19.408Z,97540.09
2023-03-31T07:32:54.865Z,97540.91
2023-03-31T07:35:22.933Z,97536.13
2023-03-31T07:37:50.910Z,97544.19
2023-03-31T07:40:30.418Z,97554.00
2023-03-31T07:42:57.001Z,97547.09
2023-03-31T07:45:26.076Z,97534.28
2023-03-31T07:47:53.742Z,97524.47
2023-03-31T07:50:21.119Z,97531.00
2023-03-31T07:52:47.758Z,97540.81
2023-03-31T07:55:15.550Z,97538.56
2023-03-31T07:57:43.471Z,97548.69
2023-03-31T08:00:12.711Z,97549.22
2023-03-31T08:02:42.743Z,97548.50
2023-03-31T08:05:12.032Z,97546.97
2023-03-31T08:07:41.696Z,97551.44
2023-03-31T08:10:11.574Z,97550.59
2023-03-31T08:12:38.222Z,97554.75
2023-03-31T08:15:05.362Z,97541.34
2023-03-31T08:17:31.854Z,97540.19
2023-03-31T08:20:01.651Z,97546.09
2023-03-31T08:22:30.573Z,97541.38
2023-03-31T08:24:57.082Z,97542.16
2023-03-31T08:27:23.708Z,97543.84
2023-03-31T08:29:50.196Z,97532.56
2023-03-31T08:32:16.737Z,97534.25
2023-03-31T08:34:43.259Z,97531.34
2023-03-31T08:37:10.429Z,97528.63
2023-03-31T08:39:37.311Z,97524.19
2023-03-31T08:42:25.625Z,97533.28
2023-03-31T08:45:39.682Z,97513.13
2023-03-31T08:48:26.383Z,97514.38
2023-03-31T08:51:01.289Z,97519.75
2023-03-31T08:53:52.086Z,97524.72
2023-03-31T08:56:22.874Z,97523.88
2023-03-31T08:58:50.932Z,97528.53
2023-03-31T09:01:55.615Z,97528.75
2023-03-31T09:04:25.900Z,97538.84
2023-03-31T09:07:15.110Z,97534.75
2023-03-31T09:10:00.155Z,97536.41
2023-03-31T09:12:42.604Z,97533.72
2023-03-31T09:15:21.022Z,97527.94
2023-03-31T09:17:51.598Z,97533.78
2023-03-31T09:20:29.219Z,97526.22
2023-03-31T09:23:38.545Z,97533.81
2023-03-31T09:26:07.061Z,97534.31
2023-03-31T09:28:40.325Z,97521.09
2023-03-31T09:31:18.053Z,97506.03
2023-03-31T09:33:48.343Z,97500.59
2023-03-31T09:36:17.450Z,97506.97
2023-03-31T09:38:45.686Z,97502.69
2023-03-31T09:41:14.193Z,97484.66
2023-03-31T09:43:42.260Z,97478.13
2023-03-31T09:46:36.807Z,97489.88
2023-03-31T09:49:15.447Z,97471.34
2023-03-31T09:51:46.117Z,97473.00
2023-03-31T09:54:29.390Z,97480.81
2023-03-31T09:56:55.871Z,97468.22
2023-03-31T09:59:41.329Z,97462.47
2023-03-31T10:02:28.599Z,97448.72
2023-03-31T10:04:55.490Z,97458.09
2023-03-31T10:07:24.413Z,97443.84
2023-03-31T10:09:52.324Z,97457.94
2023-03-31T10:12:25.660Z,97437.59
2023-03-31T10:14:54.506Z,97427.59
2023-03-31T10:17:23.953Z,97416.19
2023-03-31T10:19:59.216Z,97412.69
2023-03-31T10:22:31.024Z,97393.06
2023-03-31T10:25:14.603Z,97388.25
2023-03-31T10:27:42.304Z,97402.22
2023-03-31T10:30:12.257Z,97404.09
2023-03-31T10:32:43.227Z,97407.25
2023-03-31T10:35:24.549Z,97378.84
2023-03-31T10:37:54.722Z,97398.31
2023-03-31T10:40:24.733Z,97381.53
2023-03-31T10:43:01.489Z,97399.72
2023-03-31T10:45:37.049Z,97390.91
2023-03-31T10:48:07.047Z,97375.91
2023-03-31T10:50:36.576Z,97373.19
2023-03-31T10:53:13.421Z,97377.47
2023-03-31T10:55:44.310Z,97379.13
2023-03-31T10:58:26.972Z,97364.41
2023-03-31T11:01:30.035Z,97339.53
2023-03-31T11:04:32.151Z,97366.66
2023-03-31T11:07:40.772Z,97375.25
2023-03-31T11:10:28.943Z,97358.25
2023-03-31T11:13:01.212Z,97364.31
2023-03-31T11:15:51.296Z,97370.75
2023-03-31T11:18:39.276Z,97357.31
2023-03-31T11:21:43.364Z,97374.41
2023-03-31T11:24:34.641Z,97364.44
2023-03-31T11:27:06.821Z,97376.75
2023-03-31T11:30:11.849Z,97394.78
2023-03-31T11:32:47.768Z,97408.50
2023-03-31T11:35:43.795Z,97439.34
2023-03-31T11:38:44.634Z,97462.03
2023-03-31T11:41:15.712Z,97555.34
2023-03-31T11:43:45.059Z,97558.34
2023-03-31T11:46:22.845Z,97574.53
2023-03-31T11:48:59.216Z,97536.47
2023-03-31T11:51:38.792Z,97507.13
2023-03-31T11:54:12.158Z,97500.34
2023-03-31T11:56:41.445Z,97498.09
2023-03-31T11:59:14.881Z,97487.09
2023-03-31T12:01:54.391Z,97480.47
2023-03-31T12:04:40.366Z,97457.34
2023-03-31T12:07:46.552Z,97449.19
2023-03-31T12:10:38.986Z,97450.53
2023-03-31T12:13:24.845Z,97445.09
2023-03-31T12:16:02.707Z,97435.34
2023-03-31T12:18:35.994Z,97407.81
2023-03-31T12:21:04.864Z,97413.84
2023-03-31T12:23:38.675Z,97398.81
2023-03-31T12:26:26.661Z,97378.31
2023-03-31T12:28:59.315Z,97377.41
2023-03-31T12:31:28.525Z,97384.69
2023-03-31T12:34:02.620Z,97367.00
2023-03-31T12:36:52.952Z,97372.63
2023-03-31T12:39:50.692Z,97380.78
2023-03-31T12:42:38.693Z,97370.88
2023-03-31T12:45:31.360Z,97354.66
2023-03-31T12:48:14.086Z,97343.59
2023-03-31T12:50:55.423Z,97329.66
2023-03-31T12:53:40.253Z,97323.72
2023-03-31T12:56:07.052Z,97321.03
2023-03-31T12:58:42.947Z,97319.34
2023-03-31T13:01:14.437Z,97305.78
2023-03-31T13:03:54.680Z,97298.78
2023-03-31T13:06:30.460Z,97296.63
2023-03-31T13:09:08.510Z,97285.66
2023-03-31T13:11:39.552Z,97295.69
2023-03-31T13:14:12.054Z,97298.81
2023-03-31T13:16:38.903Z,97304.94
2023-03-31T13:19:06.264Z,97315.63
2023-03-31T13:21:52.937Z,97303.56
2023-03-31T13:24:23.611Z,97302.25
2023-03-31T13:26:51.772Z,97317.28
2023-03-31T13:29:20.711Z,97319.22
2023-03-31T13:32:02.371Z,97296.91
2023-03-31T13:34:35.928Z,97296.66
2023-03-31T13:37:11.300Z,97284.19
2023-03-31T13:39:58.001Z,97284.38
2023-03-31T13:42:27.507Z,97291.53
2023-03-31T13:45:16.148Z,97298.84
2023-03-31T13:47:48.702Z,97305.28
2023-03-31T13:50:30.612Z,97327.81
2023-03-31T13:52:57.016Z,97337.97
2023-03-31T13:55:41.269Z,97329.22
2023-03-31T13:58:34.656Z,97328.09
2023-03-31T14:01:36.466Z,97454.69
2023-03-31T14:04:48.067Z,97529.25
2023-03-31T14:07:21.199Z,97495.75
2023-03-31T14:09:50.651Z,97512.66
2023-03-31T14:12:23.117Z,97506.88
2023-03-31T14:14:53.788Z,97514.94
2023-03-31T14:17:22.230Z,97512.81
2023-03-31T14:20:13.662Z,97493.22
2023-03-31T14:22:57.799Z,97465.53
2023-03-31T14:25:43.004Z,97430.53
2023-03-31T14:28:27.884Z,97396.38
2023-03-31T14:31:21.438Z,97421.88
2023-03-31T14:33:50.812Z,97413.03
2023-03-31T14:36:39.630Z,97410.91
2023-03-31T14:39:11.684Z,97399.63
2023-03-31T14:41:38.348Z,97376.25
2023-03-31T14:44:07.194Z,97383.91
2023-03-31T14:46:38.672Z,97387.13
2023-03-31T14:49:24.014Z,97391.28
2023-03-31T14:51:53.334Z,97386.47
2023-03-31T14:54:21.168Z,97395.19
2023-03-31T14:56:51.142Z,97407.00
2023-03-31T14:59:26.063Z,97437.81
2023-03-31T15:01:52.747Z,97462.25
2023-03-31T15:04:31.972Z,97459.97
2023-03-31T15:07:06.474Z,97442.03
2023-03-31T15:09:36.332Z,97429.09
2023-03-31T15:12:07.301Z,97414.56
2023-03-31T15:14:45.691Z,97403.44
2023-03-31T15:17:28.079Z,97393.19
2023-03-31T15:20:19.207Z,97384.66
2023-03-31T15:22:46.666Z,97380.75
2023-03-31T15:25:16.799Z,97360.19
2023-03-31T15:27:56.480Z,97356.16
2023-03-31T15:30:25.528Z,97342.66
2023-03-31T15:32:56.926Z,97335.06
2023-03-31T15:35:33.886Z,97330.50
2023-03-31T15:38:02.565Z,97359.28
2023-03-31T15:40:32.636Z,97369.00
2023-03-31T15:43:20.229Z,97383.41
2023-03-31T15:46:01.649Z,97398.34
2023-03-31T15:48:33.925Z,97383.22
2023-03-31T15:51:17.820Z,97383.63
2023-03-31T15:53:45.647Z,97390.28
2023-03-31T15:56:36.022Z,97399.00
2023-03-31T15:59:21.516Z,97405.94
2023-03-31T16:01:50.106Z,97410.47
2023-03-31T16:04:17.228Z,97411.41
2023-03-31T16:06:43.818Z,97425.06
2023-03-31T16:09:38.288Z,97436.59
2023-03-31T16:12:14.576Z,97427.50
2023-03-31T16:14:51.554Z,97422.50
2023-03-31T16:17:31.448Z,97415.69
2023-03-31T16:20:10.946Z,97412.03
2023-03-31T16:22:45.012Z,97402.38
2023-03-31T16:25:15.398Z,97410.16
2023-03-31T16:27:46.697Z,97404.88
2023-03-31T16:30:34.913Z,97407.19
2023-03-31T16:33:05.592Z,97404.22
2023-03-31T16:35:43.107Z,97400.34
2023-03-31T16:38:12.057Z,97391.69
2023-03-31T16:40:41.450Z,97403.03
2023-03-31T16:43:21.241Z,97401.69
2023-03-31T16:45:50.418Z,97406.13
2023-03-31T16:48:18.857Z,97411.22
2023-03-31T16:50:47.621Z,97408.00
2023-03-31T16:53:15.266Z,97418.59
2023-03-31T16:55:42.453Z,97411.56
2023-03-31T16:58:09.343Z,97402.22
2023-03-31T17:00:36.668Z,97399.59
2023-03-31T17:03:05.056Z,97388.78
2023-03-31T17:05:33.126Z,97393.81
2023-03-31T17:08:00.246Z,97399.84
2023-03-31T17:10:26.944Z,97398.88
2023-03-31T17:12:53.400Z,97392.97
2023-03-31T17:15:20.349Z,97391.31
2023-03-31T17:17:47.705Z,97384.94
2023-03-31T17:20:14.485Z,97393.25
2023-03-31T17:22:41.659Z,97390.88
2023-03-31T17:25:08.665Z,97427.16
2023-03-31T17:27:35.891Z,97430.56
2023-03-31T17:30:02.805Z,97464.28
2023-03-31T17:32:29.841Z,97476.47
2023-03-31T17:34:56.469Z,97467.28
2023-03-31T17:37:22.983Z,97467.31
2023-03-31T17:39:49.458Z,97467.69
2023-03-31T17:42:16.689Z,97486.28
2023-03-31T17:44:43.223Z,97478.03
2023-03-31T17:47:09.935Z,97471.81
2023-03-31T17:49:36.416Z,97470.75
2023-03-31T17:52:02.940Z,97465.41
2023-03-31T17:54:29.463Z,97471.31
2023-03-31T17:56:56.254Z,97464.31
2023-03-31T17:59:24.001Z,97461.59
2023-03-31T18:01:50.694Z,97465.38
2023-03-31T18:04:17.382Z,97464.56
2023-03-31T18:06:44.848Z,97474.53
2023-03-31T18:09:11.692Z,97481.56
2023-03-31T18:11:38.723Z,97477.25
2023-03-31T18:14:05.293Z,97493.97
2023-03-31T18:16:32.329Z,97498.81
2023-03-31T18:18:58.924Z,97517.09
2023-03-31T18:21:25.842Z,97512.00
2023-03-31T18:23:52.699Z,97510.66
2023-03-31T18:26:19.715Z,97510.66
2023-03-31T18:28:46.486Z,97520.88
2023-03-31T18:31:13.471Z,97515.22
2023-03-31T18:33:40.755Z,97509.03
2023-03-31T18:36:08.586Z,97512.56
2023-03-31T18:38:36.942Z,97517.41
2023-03-31T18:41:03.604Z,97514.19
2023-03-31T18:43:32.004Z,97520.63
2023-03-31T18:46:01.292Z,97523.06
2023-03-31T18:48:28.287Z,97532.19
2023-03-31T18:50:54.871Z,97531.13
2023-03-31T18:53:23.157Z,97527.09
2023-03-31T18:55:51.118Z,97525.75
2023-03-31T18:58:18.044Z,97529.50
2023-03-31T19:00:45.366Z,97523.84
2023-03-31T19:03:13.709Z,97536.22
2023-03-31T19:05:40.374Z,97534.34
2023-03-31T19:08:07.261Z,97532.19
2023-03-31T19:10:34.185Z,97541.88
2023-03-31T19:13:00.753Z,97531.63
2023-03-31T19:15:27.825Z,97539.44
2023-03-31T19:17:55.094Z,97538.63
2023-03-31T19:20:21.685Z,97533.25
2023-03-31T19:22:50.832Z,97528.41
2023-03-31T19:25:19.181Z,97532.72
2023-03-31T19:27:46.281Z,97526.78
2023-03-31T19:30:19.954Z,97526.25
2023-03-31T19:32:48.849Z,97525.19
2023-03-31T19:35:18.783Z,97525.19
2023-03-31T19:37:46.088Z,97517.66
2023-03-31T19:40:13.484Z,97528.94
2023-03-31T19:42:42.151Z,97527.88
2023-03-31T19:45:09.277Z,97540.78
2023-03-31T19:47:35.874Z,97534.63
2023-03-31T19:50:02.513Z,97523.56
2023-03-31T19:52:29.826Z,97531.66
2023-03-31T19:54:56.353Z,97525.19
2023-03-31T19:57:24.386Z,97518.75
2023-03-31T19:59:51.259Z,97514.97
2023-03-31T20:02:18.396Z,97506.09
2023-03-31T20:04:45.444Z,97507.16
2023-03-31T20:07:12.053Z,97503.38
2023-03-31T20:09:38.651Z,97512.28
2023-03-31T20:12:05.456Z,97503.13
2023-03-31T20:14:32.035Z,97509.59
2023-03-31T20:17:01.052Z,97508.53
2023-03-31T20:19:27.791Z,97503.69
2023-03-31T20:21:54.309Z,97499.91
2023-03-31T20:24:21.496Z,97493.44
2023-03-31T20:26:48.286Z,97504.50
2023-03-31T20:29:14.992Z,97502.06
2023-03-31T20:31:41.807Z,97504.47
2023-03-31T20:34:14.032Z,97516.56
2023-03-31T20:36:42.453Z,97503.97
2023-03-31T20:39:09.312Z,97510.38
2023-03-31T20:41:40.212Z,97514.97
2023-03-31T20:44:12.010Z,97520.59
2023-03-31T20:46:40.758Z,97524.09
2023-03-31T20:49:07.796Z,97530.56
2023-03-31T20:51:37.583Z,97527.88
2023-03-31T20:54:05.358Z,97532.97
2023-03-31T20:56:40.396Z,97530.84
2023-03-31T20:59:09.867Z,97535.94
2023-03-31T21:01:37.323Z,97535.13
2023-03-31T21:04:06.688Z,97530.56
2023-03-31T21:06:42.108Z,97524.94
2023-03-31T21:09:11.606Z,97531.63
2023-03-31T21:11:40.319Z,97534.31
2023-03-31T21:14:07.300Z,97528.38
2023-03-31T21:16:33.922Z,97538.63
2023-03-31T21:19:00.573Z,97542.09
2023-03-31T21:21:28.002Z,97527.06
2023-03-31T21:23:54.836Z,97535.13
2023-03-31T21:26:22.153Z,97525.16
2023-03-31T21:28:54.228Z,97530.56
2023-03-31T21:31:24.122Z,97528.09
2023-03-31T21:33:52.691Z,97528.38
2023-03-31T21:36:22.411Z,97532.16
2023-03-31T21:38:50.127Z,97538.06
2023-03-31T21:41:26.520Z,97540.75
2023-03-31T21:43:53.768Z,97537.00
2023-03-31T21:46:27.344Z,97541.31
2023-03-31T21:48:54.397Z,97542.09
2023-03-31T21:51:22.240Z,97547.22
2023-03-31T21:53:50.204Z,97557.69
2023-03-31T21:56:17.065Z,97550.97
2023-03-31T21:58:43.634Z,97549.91
2023-03-31T22:01:10.616Z,97551.50
2023-03-31T22:03:38.386Z,97552.06
2023-03-31T22:06:09.515Z,97549.13
2023-03-31T22:08:38.937Z,97542.94
2023-03-31T22:11:07.797Z,97548.56
2023-03-31T22:13:35.348Z,97531.34
2023-03-31T22:16:02.947Z,97542.66
2023-03-31T22:18:30.615Z,97543.72
2023-03-31T22:20:57.782Z,97540.25
2023-03-31T22:23:24.839Z,97544.56
2023-03-31T22:25:51.431Z,97547.50
2023-03-31T22:28:17.996Z,97539.19
2023-03-31T22:30:44.708Z,97548.31
2023-03-31T22:33:12.037Z,97538.91
2023-03-31T22:35:38.721Z,97561.22
2023-03-31T22:38:06.551Z,97588.91
2023-03-31T22:40:34.857Z,97624.94
2023-03-31T22:43:01.612Z,97623.94
2023-03-31T22:45:28.275Z,97634.47
2023-03-31T22:47:54.975Z,97628.38
2023-03-31T22:50:21.616Z,97632.59
2023-03-31T22:52:48.153Z,97631.41
2023-03-31T22:55:14.752Z,97633.34
2023-03-31T22:57:41.403Z,97639.28
2023-03-31T23:00:09.243Z,97645.41
2023-03-31T23:02:35.903Z,97641.53
2023-03-31T23:05:02.445Z,97640.75
2023-03-31T23:07:29.838Z,97641.75
2023-03-31T23:09:56.377Z,97640.38
2023-03-31T23:12:25.839Z,97639.03
2023-03-31T23:14:52.501Z,97651.81
2023-03-31T23:17:19.342Z,97654.44
2023-03-31T23:19:47.581Z,97654.13
2023-03-31T23:22:14.848Z,97661.13
2023-03-31T23:24:41.495Z,97642.16
2023-03-31T23:27:08.625Z,97629.63
2023-03-31T23:29:35.704Z,97632.03
2023-03-31T23:32:02.910Z,97630.00
2023-03-31T23:34:29.473Z,97635.28
2023-03-31T23:36:55.938Z,97624.66
2023-03-31T23:39:22.635Z,97620.50
2023-03-31T23:41:49.157Z,97620.50
2023-03-31T23:44:15.756Z,97614.13
2023-03-31T23:46:44.181Z,97608.19
2023-03-31T23:49:11.776Z,97601.81
2023-03-31T23:51:38.322Z,97601.63
2023-03-31T23:54:04.855Z,97595.97
2023-03-31T23:56:31.351Z,97586.38
2023-03-31T23:58:57.925Z,97592.28
